sensor_id;sensor_type;location;lat;lon;timestamp;pressure;altitude;pressure_sealevel;temperature;humidity
79067;BME280;68470;50.224;14.348;2023-05-02T00:02:05;99278.13;;;12.24;70.21
79067;BME280;68470;50.224;14.348;2023-05-02T00:04:31;99271.81;;;12.14;70.48
79067;BME280;68470;50.224;14.348;2023-05-02T00:06:56;99271.53;;;12.20;70.26
79067;BME280;68470;50.224;14.348;2023-05-02T00:09:22;99262.16;;;12.16;70.64
79067;BME280;68470;50.224;14.348;2023-05-02T00:11:48;99268.25;;;12.13;70.52
79067;BME280;68470;50.224;14.348;2023-05-02T00:14:14;99271.56;;;12.10;70.59
79067;BME280;68470;50.224;14.348;2023-05-02T00:16:39;99258.59;;;12.05;70.81
79067;BME280;68470;50.224;14.348;2023-05-02T00:19:05;99269.34;;;12.07;71.73
79067;BME280;68470;50.224;14.348;2023-05-02T00:21:31;99268.28;;;11.93;72.00
79067;BME280;68470;50.224;14.348;2023-05-02T00:23:57;99272.09;;;11.92;72.07
79067;BME280;68470;50.224;14.348;2023-05-02T00:26:23;99277.09;;;11.85;72.05
79067;BME280;68470;50.224;14.348;2023-05-02T00:28:49;99287.03;;;11.81;72.23
79067;BME280;68470;50.224;14.348;2023-05-02T00:31:15;99281.19;;;11.67;72.96
79067;BME280;68470;50.224;14.348;2023-05-02T00:33:41;99289.72;;;11.75;71.98
79067;BME280;68470;50.224;14.348;2023-05-02T00:36:17;99282.31;;;11.61;73.18
79067;BME280;68470;50.224;14.348;2023-05-02T00:38:44;99266.31;;;11.48;72.88
79067;BME280;68470;50.224;14.348;2023-05-02T00:41:10;99263.53;;;11.32;73.13
79067;BME280;68470;50.224;14.348;2023-05-02T00:43:36;99282.50;;;11.13;74.37
79067;BME280;68470;50.224;14.348;2023-05-02T00:46:05;99276.94;;;11.03;74.32
79067;BME280;68470;50.224;14.348;2023-05-02T00:48:32;99283.75;;;10.80;75.59
79067;BME280;68470;50.224;14.348;2023-05-02T00:50:58;99279.06;;;10.76;75.71
79067;BME280;68470;50.224;14.348;2023-05-02T00:53:23;99287.34;;;10.76;76.55
79067;BME280;68470;50.224;14.348;2023-05-02T00:55:49;99293.53;;;10.56;76.48
79067;BME280;68470;50.224;14.348;2023-05-02T00:58:17;99279.38;;;10.27;78.11
79067;BME280;68470;50.224;14.348;2023-05-02T01:04:11;99292.78;;;10.61;76.62
79067;BME280;68470;50.224;14.348;2023-05-02T01:12:15;99312.72;;;10.04;79.43
79067;BME280;68470;50.224;14.348;2023-05-02T01:14:46;99303.38;;;10.05;79.26
79067;BME280;68470;50.224;14.348;2023-05-02T01:17:15;99307.91;;;9.84;80.18
79067;BME280;68470;50.224;14.348;2023-05-02T01:19:50;99297.66;;;9.74;80.15
79067;BME280;68470;50.224;14.348;2023-05-02T01:22:18;99298.94;;;9.61;80.27
79067;BME280;68470;50.224;14.348;2023-05-02T01:28:09;99318.53;;;9.43;81.97
79067;BME280;68470;50.224;14.348;2023-05-02T01:30:41;99301.88;;;9.55;81.36
79067;BME280;68470;50.224;14.348;2023-05-02T01:33:14;99318.72;;;9.63;80.97
79067;BME280;68470;50.224;14.348;2023-05-02T01:35:41;99321.31;;;9.48;81.62
79067;BME280;68470;50.224;14.348;2023-05-02T01:38:08;99310.88;;;9.23;82.16
79067;BME280;68470;50.224;14.348;2023-05-02T01:40:39;99318.88;;;8.98;83.68
79067;BME280;68470;50.224;14.348;2023-05-02T01:43:06;99333.91;;;9.17;83.18
79067;BME280;68470;50.224;14.348;2023-05-02T01:45:33;99331.50;;;8.99;83.38
79067;BME280;68470;50.224;14.348;2023-05-02T01:48:01;99337.03;;;9.04;83.57
79067;BME280;68470;50.224;14.348;2023-05-02T01:50:27;99345.22;;;8.99;83.76
79067;BME280;68470;50.224;14.348;2023-05-02T01:52:54;99345.91;;;8.67;83.93
79067;BME280;68470;50.224;14.348;2023-05-02T01:55:20;99341.03;;;8.53;85.36
79067;BME280;68470;50.224;14.348;2023-05-02T01:57:58;99348.66;;;8.67;85.25
79067;BME280;68470;50.224;14.348;2023-05-02T02:00:25;99340.84;;;8.76;84.73
79067;BME280;68470;50.224;14.348;2023-05-02T02:02:52;99340.50;;;8.72;85.11
79067;BME280;68470;50.224;14.348;2023-05-02T02:05:19;99351.34;;;8.62;85.73
79067;BME280;68470;50.224;14.348;2023-05-02T02:07:47;99341.72;;;8.60;85.29
79067;BME280;68470;50.224;14.348;2023-05-02T02:10:13;99344.72;;;8.80;84.60
79067;BME280;68470;50.224;14.348;2023-05-02T02:12:41;99333.28;;;8.88;84.33
79067;BME280;68470;50.224;14.348;2023-05-02T02:15:24;99340.56;;;8.99;84.34
79067;BME280;68470;50.224;14.348;2023-05-02T02:18:00;99348.72;;;9.16;83.93
79067;BME280;68470;50.224;14.348;2023-05-02T02:20:29;99338.69;;;9.05;83.84
79067;BME280;68470;50.224;14.348;2023-05-02T02:22:59;99345.97;;;8.72;85.28
79067;BME280;68470;50.224;14.348;2023-05-02T02:25:27;99340.38;;;8.62;85.98
79067;BME280;68470;50.224;14.348;2023-05-02T02:27:54;99362.06;;;8.64;86.07
79067;BME280;68470;50.224;14.348;2023-05-02T02:30:21;99346.94;;;8.61;86.63
79067;BME280;68470;50.224;14.348;2023-05-02T02:32:47;99350.00;;;8.87;85.21
79067;BME280;68470;50.224;14.348;2023-05-02T02:35:12;99355.06;;;8.95;85.06
79067;BME280;68470;50.224;14.348;2023-05-02T02:37:53;99355.69;;;9.02;85.10
79067;BME280;68470;50.224;14.348;2023-05-02T02:40:30;99352.22;;;8.90;85.20
79067;BME280;68470;50.224;14.348;2023-05-02T02:48:52;99372.81;;;9.09;84.73
79067;BME280;68470;50.224;14.348;2023-05-02T02:51:28;99379.56;;;9.01;84.63
79067;BME280;68470;50.224;14.348;2023-05-02T02:56:29;99374.28;;;8.95;85.03
79067;BME280;68470;50.224;14.348;2023-05-02T02:59:05;99380.91;;;9.21;84.03
79067;BME280;68470;50.224;14.348;2023-05-02T03:01:35;99381.34;;;9.34;83.25
79067;BME280;68470;50.224;14.348;2023-05-02T03:04:06;99385.31;;;9.44;83.25
79067;BME280;68470;50.224;14.348;2023-05-02T03:06:33;99389.91;;;9.65;82.42
79067;BME280;68470;50.224;14.348;2023-05-02T03:08:59;99384.72;;;9.69;82.16
79067;BME280;68470;50.224;14.348;2023-05-02T03:11:25;99387.59;;;9.79;82.00
79067;BME280;68470;50.224;14.348;2023-05-02T03:13:51;99382.09;;;9.79;81.30
79067;BME280;68470;50.224;14.348;2023-05-02T03:18:56;99395.75;;;10.01;80.88
79067;BME280;68470;50.224;14.348;2023-05-02T03:21:21;99390.56;;;10.04;80.36
79067;BME280;68470;50.224;14.348;2023-05-02T03:23:47;99390.81;;;10.03;80.51
79067;BME280;68470;50.224;14.348;2023-05-02T03:26:13;99404.00;;;10.01;80.70
79067;BME280;68470;50.224;14.348;2023-05-02T03:28:39;99389.13;;;9.97;80.58
79067;BME280;68470;50.224;14.348;2023-05-02T03:31:05;99407.69;;;10.11;80.10
79067;BME280;68470;50.224;14.348;2023-05-02T03:33:31;99412.63;;;10.09;80.32
79067;BME280;68470;50.224;14.348;2023-05-02T03:35:57;99415.75;;;10.23;79.95
79067;BME280;68470;50.224;14.348;2023-05-02T03:38:23;99407.16;;;10.14;79.89
79067;BME280;68470;50.224;14.348;2023-05-02T03:40:48;99415.75;;;10.23;79.82
79067;BME280;68470;50.224;14.348;2023-05-02T03:43:14;99418.56;;;10.28;79.06
79067;BME280;68470;50.224;14.348;2023-05-02T03:45:40;99414.47;;;10.31;78.73
79067;BME280;68470;50.224;14.348;2023-05-02T03:48:06;99421.38;;;10.33;78.93
79067;BME280;68470;50.224;14.348;2023-05-02T03:50:31;99424.78;;;10.45;78.19
79067;BME280;68470;50.224;14.348;2023-05-02T03:52:58;99421.72;;;10.42;78.31
79067;BME280;68470;50.224;14.348;2023-05-02T03:55:24;99414.06;;;10.49;78.05
79067;BME280;68470;50.224;14.348;2023-05-02T03:57:51;99414.88;;;10.49;77.91
79067;BME280;68470;50.224;14.348;2023-05-02T04:00:16;99419.25;;;10.45;78.25
79067;BME280;68470;50.224;14.348;2023-05-02T04:02:43;99426.44;;;10.46;77.74
79067;BME280;68470;50.224;14.348;2023-05-02T04:05:08;99433.88;;;10.51;77.49
79067;BME280;68470;50.224;14.348;2023-05-02T04:07:34;99435.88;;;10.61;77.26
79067;BME280;68470;50.224;14.348;2023-05-02T04:10:00;99434.47;;;10.58;77.07
79067;BME280;68470;50.224;14.348;2023-05-02T04:12:27;99430.94;;;10.63;76.95
79067;BME280;68470;50.224;14.348;2023-05-02T04:14:53;99447.59;;;10.83;76.40
79067;BME280;68470;50.224;14.348;2023-05-02T04:17:21;99432.16;;;10.77;76.27
79067;BME280;68470;50.224;14.348;2023-05-02T04:19:51;99448.78;;;10.92;75.86
79067;BME280;68470;50.224;14.348;2023-05-02T04:22:20;99434.25;;;10.65;77.01
79067;BME280;68470;50.224;14.348;2023-05-02T04:24:51;99441.19;;;10.72;76.08
79067;BME280;68470;50.224;14.348;2023-05-02T04:27:18;99429.34;;;10.72;75.86
79067;BME280;68470;50.224;14.348;2023-05-02T04:29:47;99454.22;;;10.87;75.70
79067;BME280;68470;50.224;14.348;2023-05-02T04:32:13;99439.22;;;10.68;76.31
79067;BME280;68470;50.224;14.348;2023-05-02T04:34:39;99471.78;;;10.76;76.52
79067;BME280;68470;50.224;14.348;2023-05-02T04:37:05;99476.69;;;10.74;76.32
79067;BME280;68470;50.224;14.348;2023-05-02T04:39:32;99476.19;;;10.77;76.17
79067;BME280;68470;50.224;14.348;2023-05-02T04:41:58;99470.69;;;10.77;76.12
79067;BME280;68470;50.224;14.348;2023-05-02T04:44:24;99486.22;;;10.93;76.07
79067;BME280;68470;50.224;14.348;2023-05-02T04:46:50;99474.06;;;10.89;75.89
79067;BME280;68470;50.224;14.348;2023-05-02T04:49:16;99473.75;;;10.85;75.80
79067;BME280;68470;50.224;14.348;2023-05-02T04:51:43;99482.28;;;10.84;76.35
79067;BME280;68470;50.224;14.348;2023-05-02T04:54:09;99480.66;;;10.88;76.15
79067;BME280;68470;50.224;14.348;2023-05-02T04:56:35;99461.81;;;10.70;76.56
79067;BME280;68470;50.224;14.348;2023-05-02T04:59:01;99469.31;;;10.79;75.90
79067;BME280;68470;50.224;14.348;2023-05-02T05:01:28;99480.72;;;10.93;75.38
79067;BME280;68470;50.224;14.348;2023-05-02T05:03:54;99476.88;;;10.94;75.27
79067;BME280;68470;50.224;14.348;2023-05-02T05:06:20;99493.97;;;11.01;75.47
79067;BME280;68470;50.224;14.348;2023-05-02T05:08:47;99475.22;;;10.93;75.39
79067;BME280;68470;50.224;14.348;2023-05-02T05:11:13;99468.56;;;10.89;75.29
79067;BME280;68470;50.224;14.348;2023-05-02T05:13:40;99481.81;;;10.92;75.68
79067;BME280;68470;50.224;14.348;2023-05-02T05:16:07;99494.78;;;10.97;75.70
79067;BME280;68470;50.224;14.348;2023-05-02T05:18:36;99499.28;;;11.13;74.98
79067;BME280;68470;50.224;14.348;2023-05-02T05:21:06;99497.91;;;11.10;75.54
79067;BME280;68470;50.224;14.348;2023-05-02T05:23:32;99508.44;;;11.24;74.67
79067;BME280;68470;50.224;14.348;2023-05-02T05:26:12;99529.72;;;11.38;74.21
79067;BME280;68470;50.224;14.348;2023-05-02T05:28:38;99519.00;;;11.42;73.18
79067;BME280;68470;50.224;14.348;2023-05-02T05:31:08;99532.28;;;11.50;73.59
79067;BME280;68470;50.224;14.348;2023-05-02T05:33:34;99525.41;;;11.58;73.54
79067;BME280;68470;50.224;14.348;2023-05-02T05:36:11;99531.56;;;11.75;72.84
79067;BME280;68470;50.224;14.348;2023-05-02T05:38:38;99523.03;;;11.77;71.74
79067;BME280;68470;50.224;14.348;2023-05-02T05:41:06;99528.56;;;11.77;72.82
79067;BME280;68470;50.224;14.348;2023-05-02T05:43:35;99532.72;;;11.79;73.15
79067;BME280;68470;50.224;14.348;2023-05-02T05:46:02;99525.84;;;11.82;72.89
79067;BME280;68470;50.224;14.348;2023-05-02T05:48:27;99530.44;;;11.71;74.05
79067;BME280;68470;50.224;14.348;2023-05-02T05:50:53;99546.75;;;11.78;74.04
79067;BME280;68470;50.224;14.348;2023-05-02T05:53:19;99547.34;;;11.80;74.50
79067;BME280;68470;50.224;14.348;2023-05-02T05:55:46;99546.25;;;11.86;73.75
79067;BME280;68470;50.224;14.348;2023-05-02T05:58:12;99542.94;;;11.89;74.11
79067;BME280;68470;50.224;14.348;2023-05-02T06:00:38;99561.25;;;12.10;73.26
79067;BME280;68470;50.224;14.348;2023-05-02T06:03:05;99561.53;;;12.24;72.95
79067;BME280;68470;50.224;14.348;2023-05-02T06:05:31;99551.38;;;12.40;73.19
79067;BME280;68470;50.224;14.348;2023-05-02T06:07:57;99549.16;;;12.42;72.71
79067;BME280;68470;50.224;14.348;2023-05-02T06:10:23;99563.03;;;12.62;71.37
79067;BME280;68470;50.224;14.348;2023-05-02T06:12:49;99569.09;;;12.69;71.37
79067;BME280;68470;50.224;14.348;2023-05-02T06:15:16;99568.56;;;12.77;70.64
79067;BME280;68470;50.224;14.348;2023-05-02T06:17:41;99557.47;;;12.72;69.54
79067;BME280;68470;50.224;14.348;2023-05-02T06:20:08;99579.59;;;12.98;68.62
79067;BME280;68470;50.224;14.348;2023-05-02T06:22:34;99568.00;;;13.01;68.32
79067;BME280;68470;50.224;14.348;2023-05-02T06:25:00;99582.38;;;13.18;67.82
79067;BME280;68470;50.224;14.348;2023-05-02T06:27:26;99584.53;;;13.57;66.60
79067;BME280;68470;50.224;14.348;2023-05-02T06:29:52;99579.69;;;13.98;64.73
79067;BME280;68470;50.224;14.348;2023-05-02T06:32:18;99585.00;;;14.49;62.54
79067;BME280;68470;50.224;14.348;2023-05-02T06:34:44;99580.09;;;14.80;61.65
79067;BME280;68470;50.224;14.348;2023-05-02T06:37:10;99582.13;;;15.32;60.40
79067;BME280;68470;50.224;14.348;2023-05-02T06:39:39;99576.84;;;15.35;59.75
79067;BME280;68470;50.224;14.348;2023-05-02T06:42:05;99591.06;;;15.24;60.05
79067;BME280;68470;50.224;14.348;2023-05-02T06:44:31;99590.78;;;14.91;60.13
79067;BME280;68470;50.224;14.348;2023-05-02T06:46:57;99581.66;;;14.52;61.01
79067;BME280;68470;50.224;14.348;2023-05-02T06:49:23;99596.44;;;14.27;62.27
79067;BME280;68470;50.224;14.348;2023-05-02T06:51:49;99608.44;;;14.07;63.09
79067;BME280;68470;50.224;14.348;2023-05-02T06:54:15;99612.06;;;14.02;63.32
79067;BME280;68470;50.224;14.348;2023-05-02T06:56:41;99593.00;;;13.91;63.62
79067;BME280;68470;50.224;14.348;2023-05-02T06:59:12;99596.31;;;13.98;62.48
79067;BME280;68470;50.224;14.348;2023-05-02T07:01:42;99611.25;;;13.92;63.10
79067;BME280;68470;50.224;14.348;2023-05-02T07:04:09;99612.66;;;13.94;62.41
79067;BME280;68470;50.224;14.348;2023-05-02T07:06:35;99623.06;;;14.18;62.40
79067;BME280;68470;50.224;14.348;2023-05-02T07:09:01;99603.53;;;14.43;60.82
79067;BME280;68470;50.224;14.348;2023-05-02T07:11:27;99598.19;;;14.67;60.15
79067;BME280;68470;50.224;14.348;2023-05-02T07:13:54;99593.50;;;15.01;58.02
79067;BME280;68470;50.224;14.348;2023-05-02T07:16:26;99624.28;;;15.34;57.19
79067;BME280;68470;50.224;14.348;2023-05-02T07:18:56;99601.22;;;15.68;55.62
79067;BME280;68470;50.224;14.348;2023-05-02T07:21:27;99611.56;;;15.57;55.06
79067;BME280;68470;50.224;14.348;2023-05-02T07:23:53;99618.06;;;15.47;54.72
79067;BME280;68470;50.224;14.348;2023-05-02T07:26:22;99615.19;;;14.89;55.61
79067;BME280;68470;50.224;14.348;2023-05-02T07:28:48;99617.22;;;14.79;55.33
79067;BME280;68470;50.224;14.348;2023-05-02T07:31:14;99630.78;;;14.80;55.08
79067;BME280;68470;50.224;14.348;2023-05-02T07:33:40;99630.13;;;14.93;54.69
79067;BME280;68470;50.224;14.348;2023-05-02T07:36:06;99615.13;;;14.99;54.43
79067;BME280;68470;50.224;14.348;2023-05-02T07:38:35;99626.41;;;15.13;54.64
79067;BME280;68470;50.224;14.348;2023-05-02T07:41:01;99618.72;;;15.34;54.12
79067;BME280;68470;50.224;14.348;2023-05-02T07:43:28;99614.94;;;15.54;54.01
79067;BME280;68470;50.224;14.348;2023-05-02T07:45:54;99620.84;;;16.00;52.71
79067;BME280;68470;50.224;14.348;2023-05-02T07:48:21;99616.75;;;16.16;52.20
79067;BME280;68470;50.224;14.348;2023-05-02T07:50:47;99614.94;;;16.49;52.44
79067;BME280;68470;50.224;14.348;2023-05-02T07:53:17;99633.91;;;16.42;51.59
79067;BME280;68470;50.224;14.348;2023-05-02T07:55:42;99632.13;;;16.51;51.13
79067;BME280;68470;50.224;14.348;2023-05-02T07:58:17;99649.97;;;16.45;52.09
79067;BME280;68470;50.224;14.348;2023-05-02T08:00:43;99650.59;;;16.42;52.88
79067;BME280;68470;50.224;14.348;2023-05-02T08:03:09;99651.34;;;16.91;51.88
79067;BME280;68470;50.224;14.348;2023-05-02T08:05:35;99640.66;;;16.79;52.05
79067;BME280;68470;50.224;14.348;2023-05-02T08:08:01;99654.41;;;16.89;51.70
79067;BME280;68470;50.224;14.348;2023-05-02T08:10:27;99665.94;;;17.85;50.57
79067;BME280;68470;50.224;14.348;2023-05-02T08:12:56;99660.47;;;17.94;47.95
79067;BME280;68470;50.224;14.348;2023-05-02T08:15:21;99667.16;;;17.93;47.98
79067;BME280;68470;50.224;14.348;2023-05-02T08:17:53;99653.16;;;17.98;47.84
79067;BME280;68470;50.224;14.348;2023-05-02T08:20:19;99671.72;;;18.44;46.79
79067;BME280;68470;50.224;14.348;2023-05-02T08:22:46;99659.34;;;18.50;46.45
79067;BME280;68470;50.224;14.348;2023-05-02T08:25:12;99679.88;;;17.99;47.30
79067;BME280;68470;50.224;14.348;2023-05-02T08:27:38;99681.44;;;18.46;46.75
79067;BME280;68470;50.224;14.348;2023-05-02T08:30:04;99670.88;;;18.98;45.52
79067;BME280;68470;50.224;14.348;2023-05-02T08:32:31;99678.28;;;19.03;45.66
79067;BME280;68470;50.224;14.348;2023-05-02T08:34:57;99680.91;;;19.21;44.53
79067;BME280;68470;50.224;14.348;2023-05-02T08:37:23;99685.94;;;19.33;44.08
79067;BME280;68470;50.224;14.348;2023-05-02T08:39:49;99687.22;;;19.49;43.53
79067;BME280;68470;50.224;14.348;2023-05-02T08:42:15;99690.41;;;19.57;43.52
79067;BME280;68470;50.224;14.348;2023-05-02T08:44:40;99690.16;;;19.31;43.68
79067;BME280;68470;50.224;14.348;2023-05-02T08:47:09;99679.59;;;19.86;42.85
79067;BME280;68470;50.224;14.348;2023-05-02T08:49:38;99688.47;;;19.88;41.82
79067;BME280;68470;50.224;14.348;2023-05-02T08:52:08;99680.69;;;20.07;41.57
79067;BME280;68470;50.224;14.348;2023-05-02T08:54:37;99697.00;;;19.83;41.78
79067;BME280;68470;50.224;14.348;2023-05-02T08:57:04;99705.81;;;19.76;42.25
79067;BME280;68470;50.224;14.348;2023-05-02T08:59:30;99708.16;;;19.83;41.46
79067;BME280;68470;50.224;14.348;2023-05-02T09:02:06;99711.94;;;20.09;41.34
79067;BME280;68470;50.224;14.348;2023-05-02T09:04:39;99713.63;;;19.88;41.61
79067;BME280;68470;50.224;14.348;2023-05-02T09:07:05;99716.53;;;20.14;40.91
79067;BME280;68470;50.224;14.348;2023-05-02T09:09:33;99715.78;;;20.22;40.86
79067;BME280;68470;50.224;14.348;2023-05-02T09:11:59;99713.00;;;20.31;40.49
79067;BME280;68470;50.224;14.348;2023-05-02T09:14:28;99718.41;;;20.19;39.92
79067;BME280;68470;50.224;14.348;2023-05-02T09:16:58;99703.78;;;19.91;41.25
79067;BME280;68470;50.224;14.348;2023-05-02T09:19:27;99726.34;;;19.36;42.86
79067;BME280;68470;50.224;14.348;2023-05-02T09:22:00;99725.94;;;19.65;41.15
79067;BME280;68470;50.224;14.348;2023-05-02T09:24:26;99727.94;;;20.18;39.67
79067;BME280;68470;50.224;14.348;2023-05-02T09:27:00;99734.19;;;19.92;40.72
79067;BME280;68470;50.224;14.348;2023-05-02T09:29:28;99739.94;;;20.49;40.17
79067;BME280;68470;50.224;14.348;2023-05-02T09:32:04;99729.75;;;19.69;40.70
79067;BME280;68470;50.224;14.348;2023-05-02T09:34:30;99743.63;;;19.60;40.60
79067;BME280;68470;50.224;14.348;2023-05-02T09:36:56;99741.69;;;19.83;40.74
79067;BME280;68470;50.224;14.348;2023-05-02T09:41:50;99746.22;;;20.55;40.16
79067;BME280;68470;50.224;14.348;2023-05-02T09:44:18;99743.53;;;20.98;39.64
79067;BME280;68470;50.224;14.348;2023-05-02T09:46:45;99745.03;;;21.13;40.15
79067;BME280;68470;50.224;14.348;2023-05-02T09:49:11;99737.00;;;20.63;39.92
79067;BME280;68470;50.224;14.348;2023-05-02T09:51:39;99743.69;;;20.84;40.67
79067;BME280;68470;50.224;14.348;2023-05-02T09:54:05;99734.69;;;20.25;41.12
79067;BME280;68470;50.224;14.348;2023-05-02T09:56:50;99744.09;;;20.60;41.34
79067;BME280;68470;50.224;14.348;2023-05-02T09:59:17;99740.84;;;20.76;40.28
79067;BME280;68470;50.224;14.348;2023-05-02T10:01:43;99754.28;;;20.65;40.27
79067;BME280;68470;50.224;14.348;2023-05-02T10:04:11;99754.34;;;20.73;39.96
79067;BME280;68470;50.224;14.348;2023-05-02T10:06:44;99749.44;;;20.88;39.74
79067;BME280;68470;50.224;14.348;2023-05-02T10:09:10;99747.84;;;20.25;41.03
79067;BME280;68470;50.224;14.348;2023-05-02T10:11:41;99744.88;;;20.21;40.77
79067;BME280;68470;50.224;14.348;2023-05-02T10:14:09;99761.22;;;20.05;41.88
79067;BME280;68470;50.224;14.348;2023-05-02T10:16:37;99747.88;;;20.64;39.77
79067;BME280;68470;50.224;14.348;2023-05-02T10:19:08;99754.63;;;19.79;41.17
79067;BME280;68470;50.224;14.348;2023-05-02T10:21:35;99770.94;;;20.39;40.38
79067;BME280;68470;50.224;14.348;2023-05-02T10:24:02;99759.38;;;20.32;40.84
79067;BME280;68470;50.224;14.348;2023-05-02T10:26:29;99753.69;;;21.42;38.05
79067;BME280;68470;50.224;14.348;2023-05-02T10:28:55;99750.81;;;21.08;38.29
79067;BME280;68470;50.224;14.348;2023-05-02T10:31:21;99759.81;;;20.87;39.36
79067;BME280;68470;50.224;14.348;2023-05-02T10:33:50;99763.38;;;21.45;38.86
79067;BME280;68470;50.224;14.348;2023-05-02T10:36:20;99772.94;;;21.61;37.63
79067;BME280;68470;50.224;14.348;2023-05-02T10:38:47;99770.16;;;21.78;37.39
79067;BME280;68470;50.224;14.348;2023-05-02T10:41:19;99776.94;;;20.86;40.23
79067;BME280;68470;50.224;14.348;2023-05-02T10:43:49;99778.63;;;20.56;40.02
79067;BME280;68470;50.224;14.348;2023-05-02T10:46:35;99768.09;;;19.99;39.89
79067;BME280;68470;50.224;14.348;2023-05-02T10:49:12;99778.00;;;19.83;40.45
79067;BME280;68470;50.224;14.348;2023-05-02T10:51:40;99770.59;;;19.29;41.50
79067;BME280;68470;50.224;14.348;2023-05-02T10:54:22;99778.38;;;19.18;41.56
79067;BME280;68470;50.224;14.348;2023-05-02T11:01:54;99771.00;;;21.53;35.99
79067;BME280;68470;50.224;14.348;2023-05-02T11:04:20;99776.09;;;21.77;35.35
79067;BME280;68470;50.224;14.348;2023-05-02T11:11:50;99761.34;;;21.11;35.91
79067;BME280;68470;50.224;14.348;2023-05-02T11:19:25;99759.41;;;22.15;32.60
79067;BME280;68470;50.224;14.348;2023-05-02T11:22:34;99768.91;;;22.31;33.55
79067;BME280;68470;50.224;14.348;2023-05-02T11:25:01;99753.59;;;22.67;33.14
79067;BME280;68470;50.224;14.348;2023-05-02T11:32:22;99777.44;;;24.24;29.82
79067;BME280;68470;50.224;14.348;2023-05-02T11:34:48;99763.16;;;25.11;28.51
79067;BME280;68470;50.224;14.348;2023-05-02T11:37:21;99769.56;;;23.63;30.88
79067;BME280;68470;50.224;14.348;2023-05-02T11:39:47;99772.25;;;22.16;33.80
79067;BME280;68470;50.224;14.348;2023-05-02T11:42:30;99785.72;;;21.10;36.60
79067;BME280;68470;50.224;14.348;2023-05-02T11:45:00;99788.09;;;21.43;36.19
79067;BME280;68470;50.224;14.348;2023-05-02T11:47:26;99780.94;;;20.62;36.89
79067;BME280;68470;50.224;14.348;2023-05-02T11:49:57;99786.47;;;19.78;38.34
79067;BME280;68470;50.224;14.348;2023-05-02T11:52:24;99797.41;;;19.52;39.02
79067;BME280;68470;50.224;14.348;2023-05-02T11:54:54;99792.06;;;19.42;39.85
79067;BME280;68470;50.224;14.348;2023-05-02T11:57:23;99782.38;;;19.26;39.75
79067;BME280;68470;50.224;14.348;2023-05-02T11:59:56;99786.88;;;18.99;40.23
79067;BME280;68470;50.224;14.348;2023-05-02T12:02:38;99778.69;;;18.34;41.92
79067;BME280;68470;50.224;14.348;2023-05-02T12:05:11;99803.19;;;18.78;41.58
79067;BME280;68470;50.224;14.348;2023-05-02T12:07:45;99803.88;;;19.25;41.17
79067;BME280;68470;50.224;14.348;2023-05-02T12:10:13;99795.81;;;18.41;42.43
79067;BME280;68470;50.224;14.348;2023-05-02T12:12:41;99795.81;;;19.23;41.11
79067;BME280;68470;50.224;14.348;2023-05-02T12:15:10;99817.03;;;19.74;39.53
79067;BME280;68470;50.224;14.348;2023-05-02T12:17:45;99806.78;;;20.14;37.43
79067;BME280;68470;50.224;14.348;2023-05-02T12:20:13;99808.53;;;20.02;38.07
79067;BME280;68470;50.224;14.348;2023-05-02T12:22:49;99770.06;;;21.00;36.38
79067;BME280;68470;50.224;14.348;2023-05-02T12:25:16;99804.50;;;21.18;36.07
79067;BME280;68470;50.224;14.348;2023-05-02T12:28:23;99791.41;;;21.79;35.44
79067;BME280;68470;50.224;14.348;2023-05-02T12:30:54;99793.88;;;21.46;35.49
79067;BME280;68470;50.224;14.348;2023-05-02T12:33:24;99812.81;;;20.84;37.29
79067;BME280;68470;50.224;14.348;2023-05-02T12:38:37;99798.66;;;21.89;36.11
79067;BME280;68470;50.224;14.348;2023-05-02T12:41:04;99820.28;;;21.14;37.43
79067;BME280;68470;50.224;14.348;2023-05-02T12:43:45;99811.75;;;20.71;38.51
79067;BME280;68470;50.224;14.348;2023-05-02T12:46:12;99825.16;;;21.40;37.55
79067;BME280;68470;50.224;14.348;2023-05-02T12:48:38;99819.41;;;22.31;35.46
79067;BME280;68470;50.224;14.348;2023-05-02T12:51:04;99816.13;;;21.60;36.72
79067;BME280;68470;50.224;14.348;2023-05-02T12:53:48;99824.16;;;21.27;37.64
79067;BME280;68470;50.224;14.348;2023-05-02T12:56:14;99833.22;;;20.84;38.21
79067;BME280;68470;50.224;14.348;2023-05-02T12:58:45;99829.78;;;20.34;38.91
79067;BME280;68470;50.224;14.348;2023-05-02T13:01:12;99825.59;;;19.78;40.35
79067;BME280;68470;50.224;14.348;2023-05-02T13:03:38;99833.09;;;19.69;41.16
79067;BME280;68470;50.224;14.348;2023-05-02T13:06:04;99833.41;;;19.53;40.33
79067;BME280;68470;50.224;14.348;2023-05-02T13:08:34;99845.44;;;19.76;40.52
79067;BME280;68470;50.224;14.348;2023-05-02T13:11:02;99839.13;;;20.29;39.21
79067;BME280;68470;50.224;14.348;2023-05-02T13:13:28;99826.97;;;20.56;38.13
79067;BME280;68470;50.224;14.348;2023-05-02T13:15:55;99839.41;;;20.81;38.27
79067;BME280;68470;50.224;14.348;2023-05-02T13:18:21;99840.47;;;20.54;37.81
79067;BME280;68470;50.224;14.348;2023-05-02T13:20:48;99840.97;;;20.34;38.39
79067;BME280;68470;50.224;14.348;2023-05-02T13:23:17;99839.50;;;20.36;38.53
79067;BME280;68470;50.224;14.348;2023-05-02T13:25:43;99853.00;;;19.76;39.52
79067;BME280;68470;50.224;14.348;2023-05-02T13:28:09;99847.75;;;19.47;40.02
79067;BME280;68470;50.224;14.348;2023-05-02T13:30:35;99847.00;;;19.19;41.01
79067;BME280;68470;50.224;14.348;2023-05-02T13:33:01;99848.97;;;19.32;41.12
79067;BME280;68470;50.224;14.348;2023-05-02T13:35:29;99852.00;;;19.44;41.30
79067;BME280;68470;50.224;14.348;2023-05-02T13:37:55;99860.91;;;19.60;39.64
79067;BME280;68470;50.224;14.348;2023-05-02T13:40:21;99847.97;;;19.64;39.69
79067;BME280;68470;50.224;14.348;2023-05-02T13:42:46;99860.25;;;19.77;39.03
79067;BME280;68470;50.224;14.348;2023-05-02T13:45:12;99849.31;;;19.67;39.12